トロント/ピアソン の空港の天気 - METARとTAF

トロント・ピアソン国際空港 ( CYYZ / YYZ ) - カナダ オンタリオ州トロント
飛行場実況気象(Metar)
観測時間12/16 19:00 EST (12/17 00:00 UTC)
風向・風速北 4m/s
視程10km以上
天気現象
全天の4割程度の雲 雲底高度 1980m
全天の8割程度の雲 雲底高度 4880m
気温-7℃
湿度62%
気圧1022.9hPa
METARCYYZ 170000Z 36008KT 15SM SCT065 BKN160 M07/M13 A3017 RMK SC3AC4 SLP229
過去の天気等 Google飛行場航空写真 Wunderground天気予報

過去48時間のMETAR

飛行場予報(TAF)
発表時間: 12/16 18:38 EST (12/16 23:38 UTC)
予報対象時間: 16日19時 EST ~ 18日1時 EST
風向・風速北 5m/s
視程10km以上
少しの雲 雲底高度 910m
全天の4割程度の雲 雲底高度 3,660m
17日11時 EST から
風向・風速北 4m/s
視程10km以上
全天の8割程度の雲 雲底高度 460m
全天を覆う雲 雲底高度 3,660m
17日16時 EST から
風向・風速北北東 4m/s
視程10km以上
全天を覆う雲 雲底高度 370m
TAF CYYZ 162338Z 1700/1806 36010KT P6SM FEW030 SCT120
FM171600 01008KT P6SM BKN015 OVC120
FM172100 02008KT P6SM OVC012 RMK NXT FCST BY 170300Z